Terminal Aerodrome Forecast
Issued by NWS Jacksonville, FL

Home | Current Version | Previous Version | Text Only | Print | Product List | Glossary On
Versions: 1 2 3 4 5 6 7 8 9 10 11 12 13 14
000
FTUS42 KJAX 220521
TAFSSI
TAF
KSSI 220521Z 2206/2306 30007KT P6SM SKC
     FM221400 01012KT P6SM FEW040 SCT250
     FM230000 05009KT P6SM SCT250=

USA.gov is the U.S. government's official web portal to all federal, state and local government web resources and services.